Terminal Aerodrome Forecast
Issued by NWS Shreveport, LA

Home | Current Version | Previous Version | Text Only | Print | Product List | Glossary On
Versions: 1 2 3 4 5 6 7 8 9 10 11 12 13 14 15 16 17 18 19 20 21 22 23 24 25 26 27 28 29 30 31 32 33 34 35 36
000
FTUS44 KSHV 240606 AAA
TAFSHV
TAF AMD
KSHV 240606Z 2406/2506 24008KT P6SM VCTS SCT020 BKN035CB
     FM240700 21004KT 6SM BR VCSH BKN020
      TEMPO 2407/2411 3SM BR SCT030 BKN100
     FM241500 01007KT P6SM BKN020
     FM241800 04010KT P6SM OVC050
     FM250300 07006KT P6SM OVC250=

USA.gov is the U.S. government's official web portal to all federal, state and local government web resources and services.